createdAt,value
2022-10-05T00:01:56.805Z,97758.78
2022-10-05T00:04:07.391Z,97756.16
2022-10-05T00:06:14.170Z,97746.59
2022-10-05T00:08:19.724Z,97742.16
2022-10-05T00:10:22.803Z,97745.53
2022-10-05T00:12:28.210Z,97744.63
2022-10-05T00:14:33.478Z,97744.72
2022-10-05T00:16:36.081Z,97743.91
2022-10-05T00:18:39.440Z,97742.22
2022-10-05T00:20:42.555Z,97731.03
2022-10-05T00:22:46.997Z,97737.09
2022-10-05T00:24:52.723Z,97734.53
2022-10-05T00:26:58.092Z,97735.44
2022-10-05T00:29:02.649Z,97742.50
2022-10-05T00:31:15.860Z,97740.84
2022-10-05T00:33:18.495Z,97745.19
2022-10-05T00:35:21.525Z,97745.22
2022-10-05T00:37:24.104Z,97747.84
2022-10-05T00:39:29.888Z,97741.91
2022-10-05T00:41:45.969Z,97742.09
2022-10-05T00:44:38.364Z,97741.28
2022-10-05T00:46:52.188Z,97738.56
2022-10-05T00:49:04.898Z,97736.13
2022-10-05T00:51:17.750Z,97740.66
2022-10-05T00:53:34.794Z,97738.13
2022-10-05T00:55:52.620Z,97738.16
2022-10-05T00:58:09.211Z,97736.50
2022-10-05T01:00:14.260Z,97741.66
2022-10-05T01:02:25.063Z,97747.78
2022-10-05T01:04:35.514Z,97756.50
2022-10-05T01:06:48.959Z,97744.38
2022-10-05T01:08:59.269Z,97734.88
2022-10-05T01:11:11.733Z,97728.88
2022-10-05T01:13:25.232Z,97730.72
2022-10-05T01:15:34.489Z,97725.56
2022-10-05T01:17:43.037Z,97722.25
2022-10-05T01:20:02.643Z,97718.03
2022-10-05T01:22:14.547Z,97723.19
2022-10-05T01:24:36.365Z,97728.56
2022-10-05T01:27:13.107Z,97726.00
2022-10-05T01:29:22.650Z,97721.88
2022-10-05T01:31:29.486Z,97728.00
2022-10-05T01:33:38.807Z,97723.66
2022-10-05T01:35:50.897Z,97727.22
2022-10-05T01:38:05.609Z,97722.88
2022-10-05T01:40:15.469Z,97722.91
2022-10-05T01:42:27.222Z,97722.06
2022-10-05T01:44:37.381Z,97722.94
2022-10-05T01:46:45.524Z,97715.31
2022-10-05T01:49:00.199Z,97711.84
2022-10-05T01:51:12.373Z,97717.25
2022-10-05T01:53:25.799Z,97720.84
2022-10-05T01:55:35.098Z,97706.06
2022-10-05T01:57:47.919Z,97704.38
2022-10-05T02:00:04.690Z,97712.34
2022-10-05T02:02:12.909Z,97708.84
2022-10-05T02:04:42.722Z,97705.38
2022-10-05T02:06:44.827Z,97708.00
2022-10-05T02:08:53.911Z,97704.53
2022-10-05T02:11:00.648Z,97694.94
2022-10-05T02:13:08.130Z,97700.19
2022-10-05T02:15:15.740Z,97696.75
2022-10-05T02:17:23.328Z,97695.94
2022-10-05T02:19:34.153Z,97691.66
2022-10-05T02:21:37.490Z,97694.38
2022-10-05T02:23:43.968Z,97694.38
2022-10-05T02:25:48.577Z,97688.38
2022-10-05T02:27:54.672Z,97690.19
2022-10-05T02:30:02.509Z,97686.75
2022-10-05T02:32:12.309Z,97679.91
2022-10-05T02:34:23.146Z,97686.06
2022-10-05T02:36:34.488Z,97687.81
2022-10-05T02:38:47.808Z,97685.16
2022-10-05T02:41:02.570Z,97692.19
2022-10-05T02:43:14.731Z,97691.34
2022-10-05T02:45:26.627Z,97688.81
2022-10-05T02:47:34.395Z,97688.13
2022-10-05T02:49:43.514Z,97681.16
2022-10-05T02:51:52.282Z,97674.22
2022-10-05T02:54:04.837Z,97682.06
2022-10-05T02:56:17.515Z,97682.03
2022-10-05T02:58:24.324Z,97675.13
2022-10-05T03:00:31.446Z,97673.44
2022-10-05T03:02:42.476Z,97669.81
2022-10-05T03:04:57.357Z,97663.84
2022-10-05T03:07:11.604Z,97667.38
2022-10-05T03:09:17.569Z,97665.69
2022-10-05T03:11:31.457Z,97664.03
2022-10-05T03:13:44.353Z,97659.75
2022-10-05T03:15:59.852Z,97667.69
2022-10-05T03:18:15.265Z,97672.97
2022-10-05T03:20:31.181Z,97678.13
2022-10-05T03:22:45.306Z,97683.41
2022-10-05T03:25:15.149Z,97682.56
2022-10-05T03:27:33.231Z,97684.38
2022-10-05T03:29:41.661Z,97680.09
2022-10-05T03:31:50.354Z,97689.53
2022-10-05T03:34:00.724Z,97689.56
2022-10-05T03:36:12.919Z,97693.97
2022-10-05T03:38:20.790Z,97696.63
2022-10-05T03:40:30.755Z,97697.59
2022-10-05T03:42:44.293Z,97688.94
2022-10-05T03:44:53.328Z,97695.06
2022-10-05T03:47:06.723Z,97689.16
2022-10-05T03:49:18.129Z,97695.31
2022-10-05T03:51:25.529Z,97693.59
2022-10-05T03:53:32.133Z,97687.66
2022-10-05T03:55:41.988Z,97691.25
2022-10-05T03:57:46.743Z,97686.81
2022-10-05T03:59:58.457Z,97677.34
2022-10-05T04:02:03.565Z,97678.28
2022-10-05T04:04:12.430Z,97670.44
2022-10-05T04:06:21.987Z,97666.94
2022-10-05T04:08:32.579Z,97668.63
2022-10-05T04:10:42.440Z,97664.81
2022-10-05T04:12:50.016Z,97663.16
2022-10-05T04:14:55.723Z,97653.69
2022-10-05T04:17:02.554Z,97653.69
2022-10-05T04:19:14.643Z,97650.13
2022-10-05T04:21:24.946Z,97644.94
2022-10-05T04:23:39.627Z,97642.19
2022-10-05T04:25:47.280Z,97646.63
2022-10-05T04:27:56.174Z,97638.94
2022-10-05T04:30:08.120Z,97637.22
2022-10-05T04:32:26.930Z,97638.16
2022-10-05T04:34:48.136Z,97630.38
2022-10-05T04:36:59.254Z,97635.53
2022-10-05T04:39:13.040Z,97636.28
2022-10-05T04:41:29.256Z,97637.03
2022-10-05T04:43:43.397Z,97634.50
2022-10-05T04:45:59.813Z,97634.56
2022-10-05T04:48:35.122Z,97635.56
2022-10-05T04:50:50.471Z,97631.41
2022-10-05T04:53:03.215Z,97633.25
2022-10-05T04:55:13.428Z,97647.97
2022-10-05T04:57:24.163Z,97643.69
2022-10-05T04:59:46.816Z,97641.28
2022-10-05T05:02:06.630Z,97641.34
2022-10-05T05:04:33.509Z,97642.19
2022-10-05T05:06:41.029Z,97651.03
2022-10-05T05:09:05.793Z,97652.75
2022-10-05T05:11:24.620Z,97655.41
2022-10-05T05:13:51.220Z,97652.81
2022-10-05T05:16:02.179Z,97653.69
2022-10-05T05:18:34.190Z,97657.25
2022-10-05T05:20:52.473Z,97658.09
2022-10-05T05:23:03.495Z,97659.97
2022-10-05T05:25:23.819Z,97666.09
2022-10-05T05:27:41.332Z,97668.75
2022-10-05T05:29:57.958Z,97668.88
2022-10-05T05:32:10.414Z,97674.97
2022-10-05T05:34:30.312Z,97677.63
2022-10-05T05:36:49.235Z,97677.63
2022-10-05T05:39:05.951Z,97686.28
2022-10-05T05:41:13.051Z,97691.47
2022-10-05T05:43:25.372Z,97695.03
2022-10-05T05:45:38.563Z,97700.25
2022-10-05T05:47:47.016Z,97703.66
2022-10-05T05:52:40.033Z,97695.94
2022-10-05T05:54:47.740Z,97701.91
2022-10-05T05:56:58.130Z,97707.97
2022-10-05T05:59:07.849Z,97708.84
2022-10-05T06:01:32.314Z,97712.28
2022-10-05T06:03:40.533Z,97714.16
2022-10-05T06:05:49.528Z,97718.47
2022-10-05T06:07:54.882Z,97727.09
2022-10-05T06:10:02.464Z,97727.97
2022-10-05T06:12:11.993Z,97731.38
2022-10-05T06:14:20.165Z,97733.94
2022-10-05T06:16:27.318Z,97734.78
2022-10-05T06:18:33.101Z,97733.91
2022-10-05T06:20:41.041Z,97737.34
2022-10-05T06:22:46.605Z,97744.19
2022-10-05T06:24:58.857Z,97743.25
2022-10-05T06:27:27.813Z,97736.34
2022-10-05T06:29:46.010Z,97731.97
2022-10-05T06:32:05.349Z,97737.00
2022-10-05T06:34:20.348Z,97742.13
2022-10-05T06:36:36.389Z,97741.16
2022-10-05T06:38:54.407Z,97741.84
2022-10-05T06:41:12.864Z,97743.50
2022-10-05T06:43:35.940Z,97759.09
2022-10-05T06:45:55.396Z,97743.38
2022-10-05T06:48:08.433Z,97755.38
2022-10-05T06:50:20.087Z,97759.72
2022-10-05T06:52:30.240Z,97758.78
2022-10-05T06:54:44.316Z,97756.03
2022-10-05T06:56:54.642Z,97757.66
2022-10-05T06:59:06.539Z,97764.53
2022-10-05T07:01:15.261Z,97766.19
2022-10-05T07:03:28.930Z,97766.88
2022-10-05T07:05:57.809Z,97762.38
2022-10-05T07:08:03.953Z,97762.25
2022-10-05T07:10:18.387Z,97762.09
2022-10-05T07:12:37.909Z,97761.06
2022-10-05T07:14:54.897Z,97765.22
2022-10-05T07:17:18.148Z,97764.22
2022-10-05T07:19:33.611Z,97755.38
2022-10-05T07:21:45.988Z,97759.56
2022-10-05T07:23:57.523Z,97757.66
2022-10-05T07:26:06.673Z,97754.84
2022-10-05T07:28:18.694Z,97759.00
2022-10-05T07:30:21.728Z,97759.72
2022-10-05T07:32:34.858Z,97756.94
2022-10-05T07:34:50.316Z,97759.38
2022-10-05T07:37:18.081Z,97759.19
2022-10-05T07:39:42.049Z,97765.94
2022-10-05T07:41:57.913Z,97760.56
2022-10-05T07:44:12.894Z,97757.88
2022-10-05T07:46:23.242Z,97764.63
2022-10-05T07:48:33.388Z,97763.53
2022-10-05T07:50:41.595Z,97758.16
2022-10-05T07:52:50.753Z,97759.78
2022-10-05T07:55:03.832Z,97758.72
2022-10-05T07:57:16.707Z,97758.59
2022-10-05T07:59:30.870Z,97755.84
2022-10-05T08:01:36.568Z,97751.31
2022-10-05T08:03:49.348Z,97753.81
2022-10-05T08:05:51.942Z,97758.00
2022-10-05T08:08:00.293Z,97759.59
2022-10-05T08:10:17.739Z,97752.56
2022-10-05T08:12:25.946Z,97755.94
2022-10-05T08:14:35.837Z,97754.06
2022-10-05T08:16:39.568Z,97756.47
2022-10-05T08:18:54.703Z,97752.91
2022-10-05T08:20:59.525Z,97764.88
2022-10-05T08:23:14.169Z,97758.69
2022-10-05T08:25:25.755Z,97755.88
2022-10-05T08:27:40.098Z,97753.03
2022-10-05T08:29:50.702Z,97755.50
2022-10-05T08:31:57.212Z,97747.56
2022-10-05T08:34:11.202Z,97753.47
2022-10-05T08:36:16.853Z,97751.63
2022-10-05T08:38:22.508Z,97750.63
2022-10-05T08:40:45.370Z,97758.34
2022-10-05T08:43:18.306Z,97758.22
2022-10-05T08:45:45.580Z,97752.06
2022-10-05T08:48:32.068Z,97748.47
2022-10-05T08:50:57.910Z,97740.50
2022-10-05T08:53:36.795Z,97742.88
2022-10-05T08:55:48.036Z,97737.59
2022-10-05T08:58:31.984Z,97732.34
2022-10-05T09:00:49.176Z,97734.84
2022-10-05T09:03:08.755Z,97733.03
2022-10-05T09:05:29.101Z,97738.22
2022-10-05T09:08:11.563Z,97743.28
2022-10-05T09:10:54.962Z,97741.31
2022-10-05T09:13:18.393Z,97739.47
2022-10-05T09:15:38.044Z,97741.09
2022-10-05T09:18:12.049Z,97736.66
2022-10-05T09:20:32.221Z,97745.38
2022-10-05T09:22:59.156Z,97746.22
2022-10-05T09:25:15.592Z,97733.91
2022-10-05T09:27:19.497Z,97739.00
2022-10-05T09:29:59.522Z,97736.28
2022-10-05T09:32:25.041Z,97735.13
2022-10-05T09:35:00.649Z,97740.16
2022-10-05T09:37:39.896Z,97734.72
2022-10-05T09:40:12.398Z,97730.09
2022-10-05T09:42:46.141Z,97729.91
2022-10-05T09:45:21.182Z,97728.03
2022-10-05T09:47:50.756Z,97725.25
2022-10-05T09:50:07.651Z,97722.38
2022-10-05T09:52:28.340Z,97724.72
2022-10-05T09:55:01.219Z,97716.59
2022-10-05T09:57:48.171Z,97705.09
2022-10-05T10:00:21.590Z,97705.84
2022-10-05T10:02:43.361Z,97704.91
2022-10-05T10:05:07.470Z,97702.34
2022-10-05T10:07:42.146Z,97704.16
2022-10-05T10:09:56.755Z,97696.31
2022-10-05T10:12:20.155Z,97698.78
2022-10-05T10:15:10.981Z,97689.75
2022-10-05T10:17:30.008Z,97691.38
2022-10-05T10:19:58.927Z,97698.28
2022-10-05T10:22:20.920Z,97692.03
2022-10-05T10:24:33.072Z,97681.41
2022-10-05T10:27:16.348Z,97685.78
2022-10-05T10:29:50.971Z,97688.31
2022-10-05T10:32:09.626Z,97680.34
2022-10-05T10:34:57.587Z,97678.31
2022-10-05T10:37:32.689Z,97679.78
2022-10-05T10:39:54.003Z,97677.84
2022-10-05T10:42:25.293Z,97676.66
2022-10-05T10:45:04.562Z,97679.25
2022-10-05T10:47:39.226Z,97674.69
2022-10-05T10:50:05.974Z,97672.00
2022-10-05T10:52:22.502Z,97669.44
2022-10-05T10:55:04.808Z,97672.78
2022-10-05T10:57:10.222Z,97666.41
2022-10-05T10:59:45.845Z,97665.56
2022-10-05T11:02:02.467Z,97668.25
2022-10-05T11:04:36.033Z,97661.31
2022-10-05T11:07:16.590Z,97656.22
2022-10-05T11:09:35.919Z,97659.63
2022-10-05T11:12:21.922Z,97649.22
2022-10-05T11:14:52.868Z,97650.06
2022-10-05T11:17:15.541Z,97641.16
2022-10-05T11:19:59.519Z,97644.56
2022-10-05T11:22:20.118Z,97643.59
2022-10-05T11:24:43.334Z,97637.78
2022-10-05T11:27:11.172Z,97632.38
2022-10-05T11:29:46.112Z,97639.16
2022-10-05T11:32:08.713Z,97629.84
2022-10-05T11:34:46.301Z,97626.81
2022-10-05T11:37:14.641Z,97627.16
2022-10-05T11:39:37.062Z,97621.50
2022-10-05T11:42:10.981Z,97632.53
2022-10-05T11:44:42.927Z,97620.88
2022-10-05T11:46:56.423Z,97632.00
2022-10-05T11:49:23.317Z,97617.88
2022-10-05T11:51:39.364Z,97613.63
2022-10-05T11:53:46.261Z,97611.06
2022-10-05T11:56:06.359Z,97610.13
2022-10-05T11:58:17.194Z,97612.00
2022-10-05T12:00:22.194Z,97617.09
2022-10-05T12:02:58.287Z,97599.31
2022-10-05T12:05:12.224Z,97601.13
2022-10-05T12:07:25.495Z,97597.69
2022-10-05T12:10:06.923Z,97595.41
2022-10-05T12:12:17.920Z,97594.72
2022-10-05T12:14:28.409Z,97593.16
2022-10-05T12:16:37.839Z,97595.84
2022-10-05T12:18:50.976Z,97583.06
2022-10-05T12:20:59.727Z,97587.69
2022-10-05T12:23:12.482Z,97583.88
2022-10-05T12:25:28.066Z,97587.31
2022-10-05T12:27:37.137Z,97587.72
2022-10-05T12:29:45.434Z,97580.47
2022-10-05T12:31:57.745Z,97579.53
2022-10-05T12:34:09.447Z,97585.94
2022-10-05T12:36:16.505Z,97587.91
2022-10-05T12:38:28.584Z,97578.81
2022-10-05T12:40:41.162Z,97573.81
2022-10-05T12:42:51.455Z,97576.66
2022-10-05T12:45:10.704Z,97576.13
2022-10-05T12:47:23.677Z,97577.31
2022-10-05T12:49:51.298Z,97575.06
2022-10-05T12:51:58.605Z,97577.22
2022-10-05T12:54:10.397Z,97584.53
2022-10-05T12:56:17.121Z,97580.22
2022-10-05T12:58:30.113Z,97577.78
2022-10-05T13:00:38.154Z,97581.38
2022-10-05T13:02:46.512Z,97577.25
2022-10-05T13:04:56.245Z,97573.03
2022-10-05T13:07:18.317Z,97581.59
2022-10-05T13:09:30.064Z,97581.56
2022-10-05T13:11:35.631Z,97578.53
2022-10-05T13:13:48.349Z,97579.72
2022-10-05T13:15:56.369Z,97575.75
2022-10-05T13:18:14.170Z,97570.47
2022-10-05T13:20:28.039Z,97566.88
2022-10-05T13:22:37.101Z,97567.28
2022-10-05T13:24:49.568Z,97560.69
2022-10-05T13:26:56.022Z,97563.94
2022-10-05T13:29:04.252Z,97564.25
2022-10-05T13:31:12.953Z,97569.31
2022-10-05T13:33:20.317Z,97558.53
2022-10-05T13:35:40.257Z,97562.41
2022-10-05T13:37:54.127Z,97563.28
2022-10-05T13:40:07.304Z,97562.50
2022-10-05T13:42:14.241Z,97566.41
2022-10-05T13:44:26.164Z,97569.13
2022-10-05T13:46:37.298Z,97558.91
2022-10-05T13:48:52.765Z,97559.19
2022-10-05T13:53:14.001Z,97552.34
2022-10-05T13:55:30.350Z,97559.31
2022-10-05T13:57:46.087Z,97565.84
2022-10-05T13:59:54.394Z,97558.22
2022-10-05T14:02:00.233Z,97564.22
2022-10-05T14:04:11.054Z,97568.56
2022-10-05T14:06:27.599Z,97559.59
2022-10-05T14:08:33.885Z,97558.25
2022-10-05T14:10:40.757Z,97561.63
2022-10-05T14:12:45.735Z,97550.44
2022-10-05T14:14:50.852Z,97549.72
2022-10-05T14:16:55.380Z,97547.22
2022-10-05T14:19:10.098Z,97552.63
2022-10-05T14:21:22.074Z,97547.69
2022-10-05T14:23:26.919Z,97550.09
2022-10-05T14:25:31.499Z,97549.50
2022-10-05T14:27:37.336Z,97543.03
2022-10-05T14:29:40.117Z,97544.00
2022-10-05T14:31:50.328Z,97543.03
2022-10-05T14:33:53.039Z,97543.84
2022-10-05T14:35:58.001Z,97546.72
2022-10-05T14:38:02.734Z,97546.72
2022-10-05T14:40:24.299Z,97540.28
2022-10-05T14:42:29.471Z,97539.13
2022-10-05T14:44:34.811Z,97536.59
2022-10-05T14:46:38.559Z,97545.28
2022-10-05T14:48:43.035Z,97541.91
2022-10-05T14:50:57.567Z,97531.09
2022-10-05T14:53:17.485Z,97539.13
2022-10-05T14:55:33.721Z,97539.91
2022-10-05T14:57:45.078Z,97547.19
2022-10-05T15:00:01.519Z,97549.91
2022-10-05T15:02:24.281Z,97544.03
2022-10-05T15:04:43.675Z,97547.81
2022-10-05T15:06:57.622Z,97545.16
2022-10-05T15:09:31.505Z,97547.94
2022-10-05T15:11:38.714Z,97544.69
2022-10-05T15:13:44.293Z,97543.50
2022-10-05T15:15:54.601Z,97542.53
2022-10-05T15:18:02.140Z,97540.63
2022-10-05T15:20:19.473Z,97539.50
2022-10-05T15:22:31.654Z,97550.94
2022-10-05T15:24:44.255Z,97556.50
2022-10-05T15:26:52.660Z,97552.66
2022-10-05T15:29:01.135Z,97553.50
2022-10-05T15:31:11.280Z,97551.19
2022-10-05T15:33:21.516Z,97556.50
2022-10-05T15:35:49.674Z,97557.44
2022-10-05T15:37:57.035Z,97554.44
2022-10-05T15:40:02.235Z,97554.84
2022-10-05T15:42:10.999Z,97556.66
2022-10-05T15:44:26.023Z,97553.16
2022-10-05T15:46:36.563Z,97560.78
2022-10-05T15:48:49.380Z,97555.06
2022-10-05T15:50:56.819Z,97554.84
2022-10-05T15:53:11.931Z,97560.38
2022-10-05T15:55:35.322Z,97563.44
2022-10-05T15:57:46.441Z,97559.66
2022-10-05T16:00:01.898Z,97565.09
2022-10-05T16:02:17.186Z,97572.69
2022-10-05T16:04:26.757Z,97569.31
2022-10-05T16:06:56.125Z,97571.06
2022-10-05T16:09:09.207Z,97569.50
2022-10-05T16:11:20.630Z,97572.09
2022-10-05T16:13:34.043Z,97579.16
2022-10-05T16:15:43.621Z,97581.16
2022-10-05T16:18:02.428Z,97577.81
2022-10-05T16:20:18.610Z,97576.31
2022-10-05T16:22:29.138Z,97588.78
2022-10-05T16:24:51.635Z,97585.31
2022-10-05T16:26:59.495Z,97594.09
2022-10-05T16:29:10.376Z,97592.19
2022-10-05T16:31:19.909Z,97590.41
2022-10-05T16:33:33.212Z,97598.28
2022-10-05T16:35:46.721Z,97601.44
2022-10-05T16:38:00.642Z,97602.94
2022-10-05T16:40:08.508Z,97608.88
2022-10-05T16:42:19.470Z,97607.69
2022-10-05T16:44:34.258Z,97609.06
2022-10-05T16:46:42.546Z,97611.34
2022-10-05T16:48:56.274Z,97619.81
2022-10-05T16:51:24.074Z,97614.81
2022-10-05T16:53:31.927Z,97627.47
2022-10-05T16:55:38.416Z,97625.16
2022-10-05T16:57:46.425Z,97626.50
2022-10-05T17:00:12.179Z,97623.53
2022-10-05T17:02:31.036Z,97629.19
2022-10-05T17:04:46.042Z,97626.97
2022-10-05T17:07:36.356Z,97633.59
2022-10-05T17:09:59.344Z,97648.69
2022-10-05T17:12:16.766Z,97646.44
2022-10-05T17:14:31.852Z,97646.94
2022-10-05T17:16:48.438Z,97657.41
2022-10-05T17:19:19.242Z,97653.72
2022-10-05T17:21:30.987Z,97660.44
2022-10-05T17:23:39.881Z,97660.69
2022-10-05T17:25:46.663Z,97672.50
2022-10-05T17:27:54.036Z,97665.91
2022-10-05T17:30:22.055Z,97669.00
2022-10-05T17:32:39.453Z,97672.66
2022-10-05T17:35:18.229Z,97673.72
2022-10-05T17:37:36.477Z,97682.75
2022-10-05T17:39:51.277Z,97681.06
2022-10-05T17:41:53.991Z,97682.06
2022-10-05T17:44:28.360Z,97685.00
2022-10-05T17:46:39.217Z,97690.47
2022-10-05T17:49:12.446Z,97688.94
2022-10-05T17:51:56.458Z,97686.50
2022-10-05T17:54:18.051Z,97691.19
2022-10-05T17:56:22.361Z,97676.31
2022-10-05T17:59:01.669Z,97682.63
2022-10-05T18:01:14.260Z,97688.00
2022-10-05T18:03:41.862Z,97691.72
2022-10-05T18:05:46.326Z,97686.56
2022-10-05T18:08:09.580Z,97693.69
2022-10-05T18:10:28.922Z,97693.13
2022-10-05T18:12:49.108Z,97691.59
2022-10-05T18:14:57.170Z,97696.19
2022-10-05T18:17:01.687Z,97700.63
2022-10-05T18:19:16.609Z,97702.50
2022-10-05T18:21:39.796Z,97699.09
2022-10-05T18:23:50.000Z,97697.47
2022-10-05T18:26:02.991Z,97701.97
2022-10-05T18:28:17.853Z,97708.34
2022-10-05T18:30:23.410Z,97708.53
2022-10-05T18:32:33.596Z,97708.78
2022-10-05T18:34:43.335Z,97707.34
2022-10-05T18:37:14.857Z,97713.81
2022-10-05T18:39:30.670Z,97710.59
2022-10-05T18:41:45.508Z,97711.69
2022-10-05T18:43:59.671Z,97719.88
2022-10-05T18:46:17.174Z,97719.19
2022-10-05T18:48:29.201Z,97725.47
2022-10-05T18:50:39.795Z,97728.34
2022-10-05T18:52:53.184Z,97735.50
2022-10-05T18:55:07.306Z,97737.44
2022-10-05T18:57:45.974Z,97732.44
2022-10-05T18:59:55.776Z,97741.25
2022-10-05T19:02:10.880Z,97739.72
2022-10-05T19:04:25.548Z,97742.50
2022-10-05T19:06:31.690Z,97755.75
2022-10-05T19:08:43.645Z,97755.06
2022-10-05T19:10:52.624Z,97765.75
2022-10-05T19:13:07.444Z,97766.63
2022-10-05T19:15:18.094Z,97761.50
2022-10-05T19:17:26.209Z,97768.72
2022-10-05T19:19:43.916Z,97760.72
2022-10-05T19:21:56.860Z,97761.06
2022-10-05T19:24:18.526Z,97762.25
2022-10-05T19:26:36.749Z,97769.44
2022-10-05T19:28:50.273Z,97771.38
2022-10-05T19:31:05.169Z,97769.78
2022-10-05T19:33:27.248Z,97770.84
2022-10-05T19:35:39.201Z,97772.75
2022-10-05T19:37:54.476Z,97777.25
2022-10-05T19:40:08.806Z,97778.09
2022-10-05T19:42:26.383Z,97789.19
2022-10-05T19:44:47.793Z,97798.16
2022-10-05T19:46:59.536Z,97804.50
2022-10-05T19:51:27.276Z,97808.44
2022-10-05T19:53:33.221Z,97807.75
2022-10-05T19:55:37.810Z,97811.28
2022-10-05T19:57:48.256Z,97813.09
2022-10-05T19:59:50.822Z,97818.56
2022-10-05T20:01:55.877Z,97825.69
2022-10-05T20:03:59.264Z,97828.44
2022-10-05T20:06:03.335Z,97829.47
2022-10-05T20:08:08.410Z,97829.47
2022-10-05T20:10:29.043Z,97837.44
2022-10-05T20:12:54.445Z,97842.78
2022-10-05T20:15:26.065Z,97845.41
2022-10-05T20:17:46.893Z,97851.56
2022-10-05T20:20:18.765Z,97857.75
2022-10-05T20:22:34.236Z,97869.19
2022-10-05T20:24:50.700Z,97868.41
2022-10-05T20:27:05.177Z,97872.91
2022-10-05T20:29:09.703Z,97874.75
2022-10-05T20:31:14.402Z,97873.19
2022-10-05T20:34:56.541Z,97875.19
2022-10-05T20:37:42.117Z,97877.75
2022-10-05T20:46:42.055Z,97891.47
2022-10-05T20:48:45.753Z,97899.50
2022-10-05T20:50:48.513Z,97903.97
2022-10-05T20:52:51.195Z,97905.91
2022-10-05T20:57:00.972Z,97914.84
2022-10-05T20:59:03.627Z,97918.47
2022-10-05T21:01:19.885Z,97922.94
2022-10-05T21:03:22.813Z,97927.47
2022-10-05T21:05:25.556Z,97927.69
2022-10-05T21:09:04.146Z,97929.63
2022-10-05T21:11:09.104Z,97927.06
2022-10-05T21:13:11.829Z,97931.72
2022-10-05T21:15:14.441Z,97934.16
2022-10-05T21:17:17.023Z,97936.06
2022-10-05T21:19:19.795Z,97938.19
2022-10-05T21:21:22.715Z,97943.69
2022-10-05T21:23:25.274Z,97947.25
2022-10-05T21:25:29.314Z,97949.97
2022-10-05T21:27:32.251Z,97948.28
2022-10-05T21:29:36.500Z,97950.03
2022-10-05T21:31:39.375Z,97954.50
2022-10-05T21:33:42.045Z,97955.63
2022-10-05T21:35:44.765Z,97956.69
2022-10-05T21:37:47.420Z,97950.47
2022-10-05T21:39:50.040Z,97955.00
2022-10-05T21:41:53.978Z,97957.84
2022-10-05T21:43:56.661Z,97953.53
2022-10-05T21:45:59.454Z,97959.03
2022-10-05T21:48:02.266Z,97961.66
2022-10-05T21:50:06.131Z,97966.13
2022-10-05T21:52:11.420Z,97968.69
2022-10-05T21:54:16.546Z,97962.50
2022-10-05T21:56:21.873Z,97970.47
2022-10-05T21:58:28.840Z,97966.22
2022-10-05T22:00:32.158Z,97968.03
2022-10-05T22:02:34.954Z,97978.63
2022-10-05T22:04:37.532Z,97975.25
2022-10-05T22:06:40.286Z,97978.72
2022-10-05T22:08:42.907Z,97975.44
2022-10-05T22:10:45.492Z,97972.88
2022-10-05T22:12:48.105Z,97979.00
2022-10-05T22:14:52.028Z,97981.69
2022-10-05T22:16:55.241Z,97987.00
2022-10-05T22:18:58.423Z,97991.47
2022-10-05T22:21:00.964Z,97986.16
2022-10-05T22:23:03.681Z,97988.91
2022-10-05T22:25:07.027Z,97989.22
2022-10-05T22:27:09.721Z,97989.34
2022-10-05T22:29:12.755Z,97991.97
2022-10-05T22:31:16.961Z,97991.13
2022-10-05T22:33:19.581Z,97986.72
2022-10-05T22:35:22.272Z,97994.78
2022-10-05T22:37:24.936Z,97993.09
2022-10-05T22:39:27.694Z,97991.38
2022-10-05T22:41:30.443Z,97992.22
2022-10-05T22:43:32.980Z,97998.41
2022-10-05T22:45:35.655Z,98006.34
2022-10-05T22:47:39.569Z,98003.81
2022-10-05T22:49:42.127Z,97997.75
2022-10-05T22:51:44.677Z,97993.47
2022-10-05T22:53:47.339Z,97995.34
2022-10-05T22:55:49.951Z,97994.56
2022-10-05T22:57:52.572Z,97995.41
2022-10-05T22:59:55.152Z,97992.72
2022-10-05T23:01:58.106Z,97994.69
2022-10-05T23:04:02.197Z,97993.00
2022-10-05T23:06:07.175Z,97994.88
2022-10-05T23:08:09.839Z,97993.06
2022-10-05T23:10:15.145Z,97998.38
2022-10-05T23:12:17.743Z,98000.13
2022-10-05T23:14:20.339Z,98003.63
2022-10-05T23:16:24.294Z,97995.84
2022-10-05T23:18:27.521Z,98006.28
2022-10-05T23:20:31.706Z,98007.19
2022-10-05T23:22:36.877Z,98002.88
2022-10-05T23:24:39.427Z,98009.03
2022-10-05T23:26:42.008Z,98008.22
2022-10-05T23:28:47.126Z,98009.16
2022-10-05T23:30:49.847Z,98008.34
2022-10-05T23:32:52.453Z,98011.19
2022-10-05T23:34:55.041Z,98007.88
2022-10-05T23:36:58.968Z,98023.72
2022-10-05T23:39:01.663Z,98013.28
2022-10-05T23:41:05.498Z,98014.22
2022-10-05T23:43:08.091Z,98011.66
2022-10-05T23:45:12.249Z,98019.59
2022-10-05T23:47:14.870Z,98016.22
2022-10-05T23:49:17.469Z,98014.63
2022-10-05T23:51:20.070Z,98018.22
2022-10-05T23:53:24.787Z,98021.75
2022-10-05T23:55:27.363Z,98024.44
2022-10-05T23:57:29.965Z,98030.53
2022-10-05T23:59:32.529Z,98030.47
